sensor_id;sensor_type;location;lat;lon;timestamp;P1;durP1;ratioP1;P2;durP2;ratioP2
53801;SDS011;39709;53.334;6.534;2022-07-21T00:02:20;15.60;;;6.43;;
53801;SDS011;39709;53.334;6.534;2022-07-21T00:04:45;14.20;;;5.83;;
53801;SDS011;39709;53.334;6.534;2022-07-21T00:07:11;12.27;;;5.90;;
53801;SDS011;39709;53.334;6.534;2022-07-21T00:09:37;12.27;;;5.72;;
53801;SDS011;39709;53.334;6.534;2022-07-21T00:12:03;14.17;;;6.40;;
53801;SDS011;39709;53.334;6.534;2022-07-21T00:14:29;12.32;;;5.90;;
53801;SDS011;39709;53.334;6.534;2022-07-21T00:16:55;14.37;;;6.07;;
53801;SDS011;39709;53.334;6.534;2022-07-21T00:19:22;12.98;;;6.40;;
53801;SDS011;39709;53.334;6.534;2022-07-21T00:21:47;12.32;;;5.60;;
53801;SDS011;39709;53.334;6.534;2022-07-21T00:24:13;13.23;;;5.00;;
53801;SDS011;39709;53.334;6.534;2022-07-21T00:26:39;12.87;;;5.57;;
53801;SDS011;39709;53.334;6.534;2022-07-21T00:29:05;11.82;;;5.18;;
53801;SDS011;39709;53.334;6.534;2022-07-21T00:31:30;12.02;;;4.82;;
53801;SDS011;39709;53.334;6.534;2022-07-21T00:33:56;12.60;;;4.97;;
53801;SDS011;39709;53.334;6.534;2022-07-21T00:36:22;12.77;;;5.55;;
53801;SDS011;39709;53.334;6.534;2022-07-21T00:38:48;14.83;;;5.10;;
53801;SDS011;39709;53.334;6.534;2022-07-21T00:41:13;13.20;;;5.03;;
53801;SDS011;39709;53.334;6.534;2022-07-21T00:43:40;15.35;;;5.45;;
53801;SDS011;39709;53.334;6.534;2022-07-21T00:46:06;11.95;;;5.18;;
53801;SDS011;39709;53.334;6.534;2022-07-21T00:48:31;12.00;;;5.00;;
53801;SDS011;39709;53.334;6.534;2022-07-21T00:50:57;15.80;;;5.47;;
53801;SDS011;39709;53.334;6.534;2022-07-21T00:53:24;12.32;;;5.45;;
53801;SDS011;39709;53.334;6.534;2022-07-21T00:55:49;14.13;;;5.73;;
53801;SDS011;39709;53.334;6.534;2022-07-21T00:58:15;13.73;;;5.88;;
53801;SDS011;39709;53.334;6.534;2022-07-21T01:00:41;13.73;;;6.07;;
53801;SDS011;39709;53.334;6.534;2022-07-21T01:03:07;11.73;;;4.00;;
53801;SDS011;39709;53.334;6.534;2022-07-21T01:05:33;9.75;;;4.72;;
53801;SDS011;39709;53.334;6.534;2022-07-21T01:07:59;10.73;;;4.33;;
53801;SDS011;39709;53.334;6.534;2022-07-21T01:10:28;10.95;;;4.10;;
53801;SDS011;39709;53.334;6.534;2022-07-21T01:12:55;12.02;;;4.55;;
53801;SDS011;39709;53.334;6.534;2022-07-21T01:15:21;11.93;;;4.97;;
53801;SDS011;39709;53.334;6.534;2022-07-21T01:17:48;11.60;;;4.18;;
53801;SDS011;39709;53.334;6.534;2022-07-21T01:20:15;21.15;;;7.50;;
53801;SDS011;39709;53.334;6.534;2022-07-21T01:22:46;18.10;;;7.63;;
53801;SDS011;39709;53.334;6.534;2022-07-21T01:25:14;16.05;;;7.90;;
53801;SDS011;39709;53.334;6.534;2022-07-21T01:27:41;18.83;;;8.53;;
53801;SDS011;39709;53.334;6.534;2022-07-21T01:30:07;20.25;;;8.40;;
53801;SDS011;39709;53.334;6.534;2022-07-21T01:32:37;19.33;;;9.70;;
53801;SDS011;39709;53.334;6.534;2022-07-21T01:35:04;19.45;;;9.05;;
53801;SDS011;39709;53.334;6.534;2022-07-21T01:37:31;14.57;;;7.50;;
53801;SDS011;39709;53.334;6.534;2022-07-21T01:40:01;16.48;;;7.00;;
53801;SDS011;39709;53.334;6.534;2022-07-21T01:42:45;17.55;;;9.65;;
53801;SDS011;39709;53.334;6.534;2022-07-21T01:45:11;21.80;;;11.63;;
53801;SDS011;39709;53.334;6.534;2022-07-21T01:47:37;21.55;;;11.73;;
53801;SDS011;39709;53.334;6.534;2022-07-21T01:50:02;21.77;;;10.90;;
53801;SDS011;39709;53.334;6.534;2022-07-21T01:52:28;20.60;;;11.68;;
53801;SDS011;39709;53.334;6.534;2022-07-21T01:54:54;22.20;;;11.80;;
53801;SDS011;39709;53.334;6.534;2022-07-21T01:57:20;29.93;;;14.40;;
53801;SDS011;39709;53.334;6.534;2022-07-21T01:59:45;21.23;;;11.60;;
53801;SDS011;39709;53.334;6.534;2022-07-21T02:02:12;23.17;;;12.23;;
53801;SDS011;39709;53.334;6.534;2022-07-21T02:04:37;25.77;;;12.88;;
53801;SDS011;39709;53.334;6.534;2022-07-21T02:07:03;25.33;;;13.43;;
53801;SDS011;39709;53.334;6.534;2022-07-21T02:09:29;25.35;;;14.23;;
53801;SDS011;39709;53.334;6.534;2022-07-21T02:11:55;29.53;;;12.50;;
53801;SDS011;39709;53.334;6.534;2022-07-21T02:14:21;25.50;;;13.80;;
53801;SDS011;39709;53.334;6.534;2022-07-21T02:16:46;24.87;;;13.27;;
53801;SDS011;39709;53.334;6.534;2022-07-21T02:19:12;28.23;;;14.10;;
53801;SDS011;39709;53.334;6.534;2022-07-21T02:21:39;20.95;;;12.68;;
53801;SDS011;39709;53.334;6.534;2022-07-21T02:24:04;22.90;;;12.43;;
53801;SDS011;39709;53.334;6.534;2022-07-21T02:26:31;23.95;;;10.90;;
53801;SDS011;39709;53.334;6.534;2022-07-21T02:28:57;20.65;;;10.68;;
53801;SDS011;39709;53.334;6.534;2022-07-21T02:31:22;15.80;;;8.43;;
53801;SDS011;39709;53.334;6.534;2022-07-21T02:33:48;19.00;;;10.77;;
53801;SDS011;39709;53.334;6.534;2022-07-21T02:36:14;23.40;;;12.43;;
53801;SDS011;39709;53.334;6.534;2022-07-21T02:38:39;21.70;;;11.35;;
53801;SDS011;39709;53.334;6.534;2022-07-21T02:41:05;26.37;;;11.07;;
53801;SDS011;39709;53.334;6.534;2022-07-21T02:43:31;22.38;;;11.43;;
53801;SDS011;39709;53.334;6.534;2022-07-21T02:45:56;20.13;;;11.00;;
53801;SDS011;39709;53.334;6.534;2022-07-21T02:48:22;23.55;;;13.27;;
53801;SDS011;39709;53.334;6.534;2022-07-21T02:50:48;25.13;;;13.00;;
53801;SDS011;39709;53.334;6.534;2022-07-21T02:53:17;26.40;;;13.10;;
53801;SDS011;39709;53.334;6.534;2022-07-21T02:55:45;21.60;;;10.90;;
53801;SDS011;39709;53.334;6.534;2022-07-21T03:00:43;24.15;;;13.02;;
53801;SDS011;39709;53.334;6.534;2022-07-21T03:03:13;25.55;;;13.65;;
53801;SDS011;39709;53.334;6.534;2022-07-21T03:05:38;21.83;;;9.90;;
53801;SDS011;39709;53.334;6.534;2022-07-21T03:08:05;26.08;;;12.88;;
53801;SDS011;39709;53.334;6.534;2022-07-21T03:10:31;31.30;;;15.02;;
53801;SDS011;39709;53.334;6.534;2022-07-21T03:12:57;22.80;;;11.10;;
53801;SDS011;39709;53.334;6.534;2022-07-21T03:15:23;23.30;;;12.15;;
53801;SDS011;39709;53.334;6.534;2022-07-21T03:17:48;24.40;;;13.73;;
53801;SDS011;39709;53.334;6.534;2022-07-21T03:20:14;25.70;;;14.53;;
53801;SDS011;39709;53.334;6.534;2022-07-21T03:22:40;24.73;;;14.80;;
53801;SDS011;39709;53.334;6.534;2022-07-21T03:25:06;28.13;;;14.67;;
53801;SDS011;39709;53.334;6.534;2022-07-21T03:27:32;30.35;;;16.73;;
53801;SDS011;39709;53.334;6.534;2022-07-21T03:30:02;33.33;;;17.17;;
53801;SDS011;39709;53.334;6.534;2022-07-21T03:32:30;37.42;;;18.45;;
53801;SDS011;39709;53.334;6.534;2022-07-21T03:34:55;34.13;;;18.70;;
53801;SDS011;39709;53.334;6.534;2022-07-21T03:37:21;33.20;;;17.80;;
53801;SDS011;39709;53.334;6.534;2022-07-21T03:39:47;33.30;;;17.63;;
53801;SDS011;39709;53.334;6.534;2022-07-21T03:42:13;34.47;;;17.35;;
53801;SDS011;39709;53.334;6.534;2022-07-21T03:44:38;28.90;;;15.60;;
53801;SDS011;39709;53.334;6.534;2022-07-21T03:47:04;37.40;;;19.73;;
53801;SDS011;39709;53.334;6.534;2022-07-21T03:49:30;37.90;;;19.88;;
53801;SDS011;39709;53.334;6.534;2022-07-21T03:51:55;35.85;;;18.30;;
53801;SDS011;39709;53.334;6.534;2022-07-21T03:54:21;33.10;;;18.30;;
53801;SDS011;39709;53.334;6.534;2022-07-21T03:56:47;32.83;;;18.20;;
53801;SDS011;39709;53.334;6.534;2022-07-21T03:59:12;34.92;;;19.27;;
53801;SDS011;39709;53.334;6.534;2022-07-21T04:01:38;38.70;;;20.63;;
53801;SDS011;39709;53.334;6.534;2022-07-21T04:04:04;40.50;;;22.17;;
53801;SDS011;39709;53.334;6.534;2022-07-21T04:06:29;47.73;;;21.73;;
53801;SDS011;39709;53.334;6.534;2022-07-21T04:08:55;41.95;;;21.98;;
53801;SDS011;39709;53.334;6.534;2022-07-21T04:11:20;50.80;;;22.97;;
53801;SDS011;39709;53.334;6.534;2022-07-21T04:13:46;44.00;;;22.13;;
53801;SDS011;39709;53.334;6.534;2022-07-21T04:16:12;43.03;;;20.90;;
53801;SDS011;39709;53.334;6.534;2022-07-21T04:18:37;44.67;;;22.17;;
53801;SDS011;39709;53.334;6.534;2022-07-21T04:21:03;43.80;;;22.85;;
53801;SDS011;39709;53.334;6.534;2022-07-21T04:23:29;38.47;;;22.13;;
53801;SDS011;39709;53.334;6.534;2022-07-21T04:25:56;34.40;;;17.05;;
53801;SDS011;39709;53.334;6.534;2022-07-21T04:28:22;25.88;;;13.77;;
53801;SDS011;39709;53.334;6.534;2022-07-21T04:30:48;23.90;;;12.73;;
53801;SDS011;39709;53.334;6.534;2022-07-21T04:33:13;33.72;;;17.40;;
53801;SDS011;39709;53.334;6.534;2022-07-21T04:35:39;36.63;;;17.53;;
53801;SDS011;39709;53.334;6.534;2022-07-21T04:38:05;33.90;;;18.15;;
53801;SDS011;39709;53.334;6.534;2022-07-21T04:40:30;32.13;;;18.33;;
53801;SDS011;39709;53.334;6.534;2022-07-21T04:42:56;29.27;;;16.00;;
53801;SDS011;39709;53.334;6.534;2022-07-21T04:45:22;30.27;;;16.40;;
53801;SDS011;39709;53.334;6.534;2022-07-21T04:50:15;32.23;;;17.73;;
53801;SDS011;39709;53.334;6.534;2022-07-21T04:52:42;29.88;;;16.50;;
53801;SDS011;39709;53.334;6.534;2022-07-21T04:55:08;27.60;;;15.80;;
53801;SDS011;39709;53.334;6.534;2022-07-21T04:58:08;34.28;;;19.42;;
53801;SDS011;39709;53.334;6.534;2022-07-21T05:00:27;21.30;;;11.53;;
53801;SDS011;39709;53.334;6.534;2022-07-21T05:02:54;32.53;;;17.33;;
53801;SDS011;39709;53.334;6.534;2022-07-21T05:05:20;33.55;;;18.50;;
53801;SDS011;39709;53.334;6.534;2022-07-21T05:07:46;33.50;;;20.48;;
53801;SDS011;39709;53.334;6.534;2022-07-21T05:10:13;22.42;;;13.48;;
53801;SDS011;39709;53.334;6.534;2022-07-21T05:12:41;29.57;;;17.57;;
53801;SDS011;39709;53.334;6.534;2022-07-21T05:15:08;31.65;;;18.65;;
53801;SDS011;39709;53.334;6.534;2022-07-21T05:17:36;22.98;;;13.23;;
53801;SDS011;39709;53.334;6.534;2022-07-21T05:20:03;34.50;;;20.67;;
53801;SDS011;39709;53.334;6.534;2022-07-21T05:22:29;33.53;;;19.10;;
53801;SDS011;39709;53.334;6.534;2022-07-21T05:24:55;37.50;;;20.53;;
53801;SDS011;39709;53.334;6.534;2022-07-21T05:27:21;36.60;;;22.05;;
53801;SDS011;39709;53.334;6.534;2022-07-21T05:29:47;24.73;;;16.43;;
53801;SDS011;39709;53.334;6.534;2022-07-21T05:32:12;29.30;;;17.05;;
53801;SDS011;39709;53.334;6.534;2022-07-21T05:34:38;23.70;;;12.17;;
53801;SDS011;39709;53.334;6.534;2022-07-21T05:37:04;31.55;;;19.88;;
53801;SDS011;39709;53.334;6.534;2022-07-21T05:39:29;29.20;;;16.50;;
53801;SDS011;39709;53.334;6.534;2022-07-21T05:41:55;20.77;;;12.10;;
53801;SDS011;39709;53.334;6.534;2022-07-21T05:44:21;23.30;;;14.20;;
53801;SDS011;39709;53.334;6.534;2022-07-21T05:46:46;30.60;;;21.67;;
53801;SDS011;39709;53.334;6.534;2022-07-21T05:49:12;27.75;;;15.13;;
53801;SDS011;39709;53.334;6.534;2022-07-21T05:51:37;30.60;;;16.90;;
53801;SDS011;39709;53.334;6.534;2022-07-21T05:54:03;31.38;;;19.88;;
53801;SDS011;39709;53.334;6.534;2022-07-21T05:56:29;29.87;;;19.37;;
53801;SDS011;39709;53.334;6.534;2022-07-21T05:58:55;29.25;;;19.40;;
53801;SDS011;39709;53.334;6.534;2022-07-21T06:01:21;25.63;;;17.52;;
53801;SDS011;39709;53.334;6.534;2022-07-21T06:03:47;26.77;;;17.87;;
53801;SDS011;39709;53.334;6.534;2022-07-21T06:06:15;12.35;;;6.07;;
53801;SDS011;39709;53.334;6.534;2022-07-21T06:08:42;21.50;;;14.52;;
53801;SDS011;39709;53.334;6.534;2022-07-21T06:11:11;20.95;;;15.55;;
53801;SDS011;39709;53.334;6.534;2022-07-21T06:13:39;19.73;;;13.27;;
53801;SDS011;39709;53.334;6.534;2022-07-21T06:16:05;23.90;;;18.20;;
53801;SDS011;39709;53.334;6.534;2022-07-21T06:18:32;26.15;;;18.02;;
53801;SDS011;39709;53.334;6.534;2022-07-21T06:20:57;17.20;;;12.17;;
53801;SDS011;39709;53.334;6.534;2022-07-21T06:23:23;21.08;;;14.68;;
53801;SDS011;39709;53.334;6.534;2022-07-21T06:25:50;17.85;;;12.45;;
53801;SDS011;39709;53.334;6.534;2022-07-21T06:28:16;23.03;;;12.70;;
53801;SDS011;39709;53.334;6.534;2022-07-21T06:30:42;23.23;;;14.25;;
53801;SDS011;39709;53.334;6.534;2022-07-21T06:33:08;19.60;;;13.88;;
53801;SDS011;39709;53.334;6.534;2022-07-21T06:35:34;16.80;;;11.90;;
53801;SDS011;39709;53.334;6.534;2022-07-21T06:38:00;22.25;;;12.50;;
53801;SDS011;39709;53.334;6.534;2022-07-21T06:40:25;20.40;;;13.77;;
53801;SDS011;39709;53.334;6.534;2022-07-21T06:42:51;19.03;;;12.27;;
53801;SDS011;39709;53.334;6.534;2022-07-21T06:45:17;18.20;;;12.10;;
53801;SDS011;39709;53.334;6.534;2022-07-21T06:47:43;19.38;;;11.85;;
53801;SDS011;39709;53.334;6.534;2022-07-21T06:50:09;14.90;;;8.23;;
53801;SDS011;39709;53.334;6.534;2022-07-21T06:52:35;17.50;;;12.50;;
53801;SDS011;39709;53.334;6.534;2022-07-21T06:55:02;17.73;;;10.63;;
53801;SDS011;39709;53.334;6.534;2022-07-21T06:57:29;17.45;;;11.75;;
53801;SDS011;39709;53.334;6.534;2022-07-21T06:59:55;21.38;;;13.70;;
53801;SDS011;39709;53.334;6.534;2022-07-21T07:02:21;19.53;;;12.73;;
53801;SDS011;39709;53.334;6.534;2022-07-21T07:04:46;18.15;;;11.05;;
53801;SDS011;39709;53.334;6.534;2022-07-21T07:07:12;20.03;;;13.70;;
53801;SDS011;39709;53.334;6.534;2022-07-21T07:09:38;14.07;;;8.60;;
53801;SDS011;39709;53.334;6.534;2022-07-21T07:12:04;15.70;;;9.70;;
53801;SDS011;39709;53.334;6.534;2022-07-21T07:14:34;18.80;;;11.25;;
53801;SDS011;39709;53.334;6.534;2022-07-21T07:17:00;20.50;;;12.82;;
53801;SDS011;39709;53.334;6.534;2022-07-21T07:19:28;22.27;;;14.65;;
53801;SDS011;39709;53.334;6.534;2022-07-21T07:21:54;17.52;;;10.55;;
53801;SDS011;39709;53.334;6.534;2022-07-21T07:24:20;21.87;;;11.67;;
53801;SDS011;39709;53.334;6.534;2022-07-21T07:26:46;26.40;;;17.25;;
53801;SDS011;39709;53.334;6.534;2022-07-21T07:29:12;15.45;;;9.25;;
53801;SDS011;39709;53.334;6.534;2022-07-21T07:31:38;21.33;;;11.53;;
53801;SDS011;39709;53.334;6.534;2022-07-21T07:34:04;20.27;;;11.75;;
53801;SDS011;39709;53.334;6.534;2022-07-21T07:36:31;24.17;;;15.77;;
53801;SDS011;39709;53.334;6.534;2022-07-21T07:38:58;25.48;;;16.13;;
53801;SDS011;39709;53.334;6.534;2022-07-21T07:41:25;15.45;;;9.35;;
53801;SDS011;39709;53.334;6.534;2022-07-21T07:43:51;21.83;;;13.40;;
53801;SDS011;39709;53.334;6.534;2022-07-21T07:46:18;25.67;;;17.25;;
53801;SDS011;39709;53.334;6.534;2022-07-21T07:48:44;19.30;;;12.77;;
53801;SDS011;39709;53.334;6.534;2022-07-21T07:51:11;18.92;;;11.82;;
53801;SDS011;39709;53.334;6.534;2022-07-21T07:53:37;19.48;;;12.88;;
53801;SDS011;39709;53.334;6.534;2022-07-21T07:56:04;18.63;;;11.63;;
53801;SDS011;39709;53.334;6.534;2022-07-21T07:58:31;27.15;;;17.23;;
53801;SDS011;39709;53.334;6.534;2022-07-21T08:00:57;22.35;;;14.55;;
53801;SDS011;39709;53.334;6.534;2022-07-21T08:03:24;13.77;;;6.77;;
53801;SDS011;39709;53.334;6.534;2022-07-21T08:05:50;23.95;;;16.88;;
53801;SDS011;39709;53.334;6.534;2022-07-21T08:08:17;22.42;;;15.55;;
53801;SDS011;39709;53.334;6.534;2022-07-21T08:10:44;21.60;;;14.20;;
53801;SDS011;39709;53.334;6.534;2022-07-21T08:13:14;24.02;;;16.27;;
53801;SDS011;39709;53.334;6.534;2022-07-21T08:15:42;25.80;;;17.07;;
53801;SDS011;39709;53.334;6.534;2022-07-21T08:18:09;23.50;;;16.00;;
53801;SDS011;39709;53.334;6.534;2022-07-21T08:20:35;24.15;;;17.48;;
53801;SDS011;39709;53.334;6.534;2022-07-21T08:23:01;24.17;;;17.40;;
53801;SDS011;39709;53.334;6.534;2022-07-21T08:25:27;21.02;;;12.98;;
53801;SDS011;39709;53.334;6.534;2022-07-21T08:27:53;10.53;;;6.20;;
53801;SDS011;39709;53.334;6.534;2022-07-21T08:30:18;21.50;;;13.10;;
53801;SDS011;39709;53.334;6.534;2022-07-21T08:32:44;21.17;;;14.07;;
53801;SDS011;39709;53.334;6.534;2022-07-21T08:35:11;24.88;;;16.02;;
53801;SDS011;39709;53.334;6.534;2022-07-21T08:37:37;22.33;;;16.23;;
53801;SDS011;39709;53.334;6.534;2022-07-21T08:40:05;24.30;;;17.20;;
53801;SDS011;39709;53.334;6.534;2022-07-21T08:42:32;23.83;;;14.57;;
53801;SDS011;39709;53.334;6.534;2022-07-21T08:44:58;22.50;;;15.50;;
53801;SDS011;39709;53.334;6.534;2022-07-21T08:47:25;27.67;;;17.87;;
53801;SDS011;39709;53.334;6.534;2022-07-21T08:49:51;31.25;;;18.35;;
53801;SDS011;39709;53.334;6.534;2022-07-21T08:52:17;26.20;;;17.35;;
53801;SDS011;39709;53.334;6.534;2022-07-21T08:54:43;24.10;;;16.35;;
53801;SDS011;39709;53.334;6.534;2022-07-21T08:57:09;26.02;;;18.20;;
53801;SDS011;39709;53.334;6.534;2022-07-21T08:59:35;24.73;;;16.97;;
53801;SDS011;39709;53.334;6.534;2022-07-21T09:02:01;25.95;;;17.75;;
53801;SDS011;39709;53.334;6.534;2022-07-21T09:04:31;25.33;;;16.80;;
53801;SDS011;39709;53.334;6.534;2022-07-21T09:06:59;27.25;;;19.13;;
53801;SDS011;39709;53.334;6.534;2022-07-21T09:09:27;26.30;;;16.48;;
53801;SDS011;39709;53.334;6.534;2022-07-21T09:11:55;25.05;;;17.58;;
53801;SDS011;39709;53.334;6.534;2022-07-21T09:14:23;27.17;;;19.10;;
53801;SDS011;39709;53.334;6.534;2022-07-21T09:16:52;26.60;;;18.55;;
53801;SDS011;39709;53.334;6.534;2022-07-21T09:19:23;22.95;;;15.32;;
53801;SDS011;39709;53.334;6.534;2022-07-21T09:21:58;28.45;;;18.17;;
53801;SDS011;39709;53.334;6.534;2022-07-21T09:24:31;23.30;;;13.30;;
53801;SDS011;39709;53.334;6.534;2022-07-21T09:29:45;25.13;;;17.10;;
53801;SDS011;39709;53.334;6.534;2022-07-21T09:32:19;23.67;;;14.05;;
53801;SDS011;39709;53.334;6.534;2022-07-21T09:37:19;26.43;;;17.67;;
53801;SDS011;39709;53.334;6.534;2022-07-21T09:39:50;27.00;;;18.65;;
53801;SDS011;39709;53.334;6.534;2022-07-21T09:42:26;23.48;;;14.02;;
53801;SDS011;39709;53.334;6.534;2022-07-21T09:44:57;20.02;;;12.32;;
53801;SDS011;39709;53.334;6.534;2022-07-21T09:47:29;25.80;;;17.13;;
53801;SDS011;39709;53.334;6.534;2022-07-21T09:49:56;26.67;;;18.13;;
53801;SDS011;39709;53.334;6.534;2022-07-21T09:52:24;35.97;;;24.13;;
53801;SDS011;39709;53.334;6.534;2022-07-21T09:54:55;34.05;;;24.83;;
53801;SDS011;39709;53.334;6.534;2022-07-21T09:57:26;37.65;;;27.00;;
53801;SDS011;39709;53.334;6.534;2022-07-21T09:59:52;36.13;;;25.33;;
53801;SDS011;39709;53.334;6.534;2022-07-21T10:07:25;44.50;;;30.80;;
53801;SDS011;39709;53.334;6.534;2022-07-21T10:09:52;43.25;;;27.20;;
53801;SDS011;39709;53.334;6.534;2022-07-21T10:12:19;41.77;;;29.40;;
53801;SDS011;39709;53.334;6.534;2022-07-21T10:14:45;42.45;;;29.65;;
53801;SDS011;39709;53.334;6.534;2022-07-21T10:17:12;40.20;;;25.75;;
53801;SDS011;39709;53.334;6.534;2022-07-21T10:22:24;39.65;;;26.42;;
53801;SDS011;39709;53.334;6.534;2022-07-21T10:25:09;40.70;;;26.67;;
53801;SDS011;39709;53.334;6.534;2022-07-21T10:27:35;41.80;;;22.95;;
53801;SDS011;39709;53.334;6.534;2022-07-21T10:30:02;36.45;;;24.38;;
53801;SDS011;39709;53.334;6.534;2022-07-21T10:32:34;45.27;;;28.63;;
53801;SDS011;39709;53.334;6.534;2022-07-21T10:35:04;38.33;;;25.30;;
53801;SDS011;39709;53.334;6.534;2022-07-21T10:37:51;35.35;;;24.05;;
53801;SDS011;39709;53.334;6.534;2022-07-21T10:45:35;34.77;;;24.30;;
53801;SDS011;39709;53.334;6.534;2022-07-21T10:48:46;34.95;;;24.73;;
53801;SDS011;39709;53.334;6.534;2022-07-21T10:51:07;29.52;;;19.00;;
53801;SDS011;39709;53.334;6.534;2022-07-21T10:53:33;35.17;;;23.65;;
53801;SDS011;39709;53.334;6.534;2022-07-21T10:55:59;40.83;;;28.27;;
53801;SDS011;39709;53.334;6.534;2022-07-21T11:08:41;35.17;;;24.77;;
53801;SDS011;39709;53.334;6.534;2022-07-21T11:22:21;31.95;;;21.38;;
53801;SDS011;39709;53.334;6.534;2022-07-21T11:24:53;32.38;;;22.75;;
53801;SDS011;39709;53.334;6.534;2022-07-21T11:27:26;26.77;;;18.35;;
53801;SDS011;39709;53.334;6.534;2022-07-21T11:29:53;30.50;;;20.77;;
53801;SDS011;39709;53.334;6.534;2022-07-21T11:32:20;27.23;;;17.83;;
53801;SDS011;39709;53.334;6.534;2022-07-21T11:34:48;28.75;;;18.63;;
53801;SDS011;39709;53.334;6.534;2022-07-21T11:37:15;29.25;;;19.63;;
53801;SDS011;39709;53.334;6.534;2022-07-21T11:39:43;28.08;;;18.40;;
53801;SDS011;39709;53.334;6.534;2022-07-21T11:42:13;35.85;;;25.30;;
53801;SDS011;39709;53.334;6.534;2022-07-21T11:44:40;26.60;;;17.97;;
53801;SDS011;39709;53.334;6.534;2022-07-21T11:47:10;27.52;;;18.17;;
53801;SDS011;39709;53.334;6.534;2022-07-21T11:49:37;29.45;;;22.40;;
53801;SDS011;39709;53.334;6.534;2022-07-21T11:52:46;28.95;;;18.77;;
53801;SDS011;39709;53.334;6.534;2022-07-21T11:54:55;33.50;;;21.75;;
53801;SDS011;39709;53.334;6.534;2022-07-21T11:57:22;19.17;;;12.40;;
53801;SDS011;39709;53.334;6.534;2022-07-21T11:59:49;27.77;;;19.42;;
53801;SDS011;39709;53.334;6.534;2022-07-21T12:02:19;30.08;;;19.42;;
53801;SDS011;39709;53.334;6.534;2022-07-21T12:05:08;21.55;;;16.20;;
53801;SDS011;39709;53.334;6.534;2022-07-21T12:07:39;17.55;;;9.57;;
53801;SDS011;39709;53.334;6.534;2022-07-21T12:10:14;17.07;;;12.13;;
53801;SDS011;39709;53.334;6.534;2022-07-21T12:12:49;14.55;;;8.48;;
53801;SDS011;39709;53.334;6.534;2022-07-21T12:17:51;16.93;;;10.10;;
53801;SDS011;39709;53.334;6.534;2022-07-21T12:20:31;15.30;;;9.50;;
53801;SDS011;39709;53.334;6.534;2022-07-21T12:25:47;13.45;;;7.50;;
53801;SDS011;39709;53.334;6.534;2022-07-21T12:28:13;12.50;;;7.88;;
53801;SDS011;39709;53.334;6.534;2022-07-21T12:30:44;16.50;;;11.77;;
53801;SDS011;39709;53.334;6.534;2022-07-21T12:33:15;14.18;;;9.73;;
53801;SDS011;39709;53.334;6.534;2022-07-21T12:36:05;11.80;;;7.30;;
53801;SDS011;39709;53.334;6.534;2022-07-21T12:41:08;11.77;;;5.72;;
53801;SDS011;39709;53.334;6.534;2022-07-21T12:43:35;13.43;;;9.00;;
53801;SDS011;39709;53.334;6.534;2022-07-21T12:48:39;11.27;;;7.43;;
53801;SDS011;39709;53.334;6.534;2022-07-21T12:51:11;12.07;;;7.07;;
53801;SDS011;39709;53.334;6.534;2022-07-21T12:53:55;11.30;;;5.97;;
53801;SDS011;39709;53.334;6.534;2022-07-21T12:56:22;12.70;;;7.47;;
53801;SDS011;39709;53.334;6.534;2022-07-21T12:58:52;12.52;;;6.55;;
53801;SDS011;39709;53.334;6.534;2022-07-21T13:01:20;12.18;;;7.43;;
53801;SDS011;39709;53.334;6.534;2022-07-21T13:03:47;11.65;;;6.47;;
53801;SDS011;39709;53.334;6.534;2022-07-21T13:06:13;13.13;;;7.17;;
53801;SDS011;39709;53.334;6.534;2022-07-21T13:08:40;11.93;;;6.13;;
53801;SDS011;39709;53.334;6.534;2022-07-21T13:11:07;11.85;;;6.07;;
53801;SDS011;39709;53.334;6.534;2022-07-21T13:13:35;9.43;;;5.95;;
53801;SDS011;39709;53.334;6.534;2022-07-21T13:16:01;12.67;;;6.50;;
53801;SDS011;39709;53.334;6.534;2022-07-21T13:18:27;9.32;;;5.30;;
53801;SDS011;39709;53.334;6.534;2022-07-21T13:20:53;8.38;;;5.00;;
53801;SDS011;39709;53.334;6.534;2022-07-21T13:23:19;9.77;;;5.60;;
53801;SDS011;39709;53.334;6.534;2022-07-21T13:25:45;10.25;;;6.45;;
53801;SDS011;39709;53.334;6.534;2022-07-21T13:28:13;9.38;;;5.30;;
53801;SDS011;39709;53.334;6.534;2022-07-21T13:30:39;10.75;;;6.32;;
53801;SDS011;39709;53.334;6.534;2022-07-21T13:33:05;10.10;;;5.40;;
53801;SDS011;39709;53.334;6.534;2022-07-21T13:35:31;10.60;;;4.27;;
53801;SDS011;39709;53.334;6.534;2022-07-21T13:37:57;9.25;;;5.45;;
53801;SDS011;39709;53.334;6.534;2022-07-21T13:40:24;9.65;;;5.45;;
53801;SDS011;39709;53.334;6.534;2022-07-21T13:42:51;8.90;;;5.20;;
53801;SDS011;39709;53.334;6.534;2022-07-21T13:45:17;12.73;;;5.50;;
53801;SDS011;39709;53.334;6.534;2022-07-21T13:47:43;7.68;;;3.22;;
53801;SDS011;39709;53.334;6.534;2022-07-21T13:50:09;7.67;;;2.90;;
53801;SDS011;39709;53.334;6.534;2022-07-21T13:52:35;4.35;;;1.90;;
53801;SDS011;39709;53.334;6.534;2022-07-21T13:55:02;5.75;;;2.80;;
53801;SDS011;39709;53.334;6.534;2022-07-21T13:57:28;10.85;;;3.70;;
53801;SDS011;39709;53.334;6.534;2022-07-21T13:59:54;8.33;;;3.30;;
53801;SDS011;39709;53.334;6.534;2022-07-21T14:02:20;8.52;;;4.60;;
53801;SDS011;39709;53.334;6.534;2022-07-21T14:04:45;9.53;;;4.90;;
53801;SDS011;39709;53.334;6.534;2022-07-21T14:07:11;8.10;;;4.57;;
53801;SDS011;39709;53.334;6.534;2022-07-21T14:09:39;8.77;;;4.57;;
53801;SDS011;39709;53.334;6.534;2022-07-21T14:12:05;9.38;;;4.70;;
53801;SDS011;39709;53.334;6.534;2022-07-21T14:14:31;7.95;;;3.75;;
53801;SDS011;39709;53.334;6.534;2022-07-21T14:16:57;9.77;;;5.15;;
53801;SDS011;39709;53.334;6.534;2022-07-21T14:19:23;12.10;;;4.57;;
53801;SDS011;39709;53.334;6.534;2022-07-21T14:21:49;11.40;;;4.85;;
53801;SDS011;39709;53.334;6.534;2022-07-21T14:24:15;10.10;;;5.25;;
53801;SDS011;39709;53.334;6.534;2022-07-21T14:26:59;11.60;;;5.50;;
53801;SDS011;39709;53.334;6.534;2022-07-21T14:29:25;11.00;;;6.10;;
53801;SDS011;39709;53.334;6.534;2022-07-21T14:31:51;10.90;;;5.90;;
53801;SDS011;39709;53.334;6.534;2022-07-21T14:34:17;10.47;;;6.30;;
53801;SDS011;39709;53.334;6.534;2022-07-21T14:36:42;8.32;;;5.05;;
53801;SDS011;39709;53.334;6.534;2022-07-21T14:39:08;11.53;;;5.70;;
53801;SDS011;39709;53.334;6.534;2022-07-21T14:41:34;10.00;;;5.10;;
53801;SDS011;39709;53.334;6.534;2022-07-21T14:44:00;11.10;;;5.40;;
53801;SDS011;39709;53.334;6.534;2022-07-21T14:46:25;9.80;;;5.55;;
53801;SDS011;39709;53.334;6.534;2022-07-21T14:48:51;12.00;;;5.20;;
53801;SDS011;39709;53.334;6.534;2022-07-21T14:51:17;10.43;;;4.87;;
53801;SDS011;39709;53.334;6.534;2022-07-21T14:53:42;7.97;;;4.43;;
53801;SDS011;39709;53.334;6.534;2022-07-21T14:56:08;9.65;;;6.20;;
53801;SDS011;39709;53.334;6.534;2022-07-21T14:58:34;11.10;;;6.10;;
53801;SDS011;39709;53.334;6.534;2022-07-21T15:01:00;10.57;;;6.20;;
53801;SDS011;39709;53.334;6.534;2022-07-21T15:03:26;10.85;;;6.13;;
53801;SDS011;39709;53.334;6.534;2022-07-21T15:05:52;9.80;;;5.85;;
53801;SDS011;39709;53.334;6.534;2022-07-21T15:08:18;10.68;;;5.93;;
53801;SDS011;39709;53.334;6.534;2022-07-21T15:10:44;11.53;;;7.30;;
53801;SDS011;39709;53.334;6.534;2022-07-21T15:13:11;11.27;;;7.25;;
53801;SDS011;39709;53.334;6.534;2022-07-21T15:15:38;11.32;;;6.57;;
53801;SDS011;39709;53.334;6.534;2022-07-21T15:18:05;11.27;;;6.13;;
53801;SDS011;39709;53.334;6.534;2022-07-21T15:20:31;11.23;;;6.77;;
53801;SDS011;39709;53.334;6.534;2022-07-21T15:22:57;12.05;;;6.20;;